LEY weather

Lelystad Airport
Lelystad, Flevoland, Netherlands

Public forecast

Using degrees Celsius for public forecast. Weather courtesy of forecast.io.

METAR (pilot weather report)

Closest report is Deelen Air Base, 27.2 nm (50.3 km) SSE. Retrieved 2019/03/27 02:25 UTC (13 minutes ago):

EHDL 270225Z AUTO 14001KT 9000 BR OVC110 02/01 Q1031 BLU

TAF (pilot weather forecast)

Forecast is more than 6 hours old.

Closest forecast is Deelen Air Base, 27.2 nm (50.3 km) SSE. Retrieved 2019/03/26 18:54 UTC (8 hours ago):

TAF TAF EHDL 261749Z 2618/2706 2618/2706 28008KT 9999 BKN045 PROB30 TEMPO 2619/2621 SCT010 BECMG 2621/2623 25004KT 4500 BR MIFG PROB40 2700/2704 0800 BCFG SCT001